sensor_id;sensor_type;location;lat;lon;timestamp;pressure;altitude;pressure_sealevel;temperature;humidity
50302;BME280;36550;50.472;19.744;2022-08-18T00:00:35;97785.06;;;18.03;77.19
50302;BME280;36550;50.472;19.744;2022-08-18T00:03:21;97791.36;;;18.07;77.35
50302;BME280;36550;50.472;19.744;2022-08-18T00:06:06;97801.42;;;18.10;77.39
50302;BME280;36550;50.472;19.744;2022-08-18T00:08:51;97798.27;;;18.08;77.11
50302;BME280;36550;50.472;19.744;2022-08-18T00:11:41;97805.05;;;17.98;76.88
50302;BME280;36550;50.472;19.744;2022-08-18T00:14:25;97799.63;;;17.86;76.85
50302;BME280;36550;50.472;19.744;2022-08-18T00:17:10;97801.23;;;17.85;76.94
50302;BME280;36550;50.472;19.744;2022-08-18T00:19:54;97810.80;;;17.86;77.13
50302;BME280;36550;50.472;19.744;2022-08-18T00:22:39;97816.10;;;17.86;77.41
50302;BME280;36550;50.472;19.744;2022-08-18T00:25:24;97807.27;;;17.91;77.59
50302;BME280;36550;50.472;19.744;2022-08-18T00:28:08;97802.72;;;17.94;77.63
50302;BME280;36550;50.472;19.744;2022-08-18T00:30:52;97799.52;;;17.94;77.46
50302;BME280;36550;50.472;19.744;2022-08-18T00:33:36;97794.31;;;17.86;77.34
50302;BME280;36550;50.472;19.744;2022-08-18T00:36:21;97804.16;;;17.86;77.63
50302;BME280;36550;50.472;19.744;2022-08-18T00:39:05;97798.30;;;17.86;77.75
50302;BME280;36550;50.472;19.744;2022-08-18T00:41:49;97802.52;;;17.87;77.66
50302;BME280;36550;50.472;19.744;2022-08-18T00:44:35;97799.63;;;17.86;77.59
50302;BME280;36550;50.472;19.744;2022-08-18T00:47:19;97803.61;;;17.86;77.62
50302;BME280;36550;50.472;19.744;2022-08-18T00:50:05;97801.73;;;17.87;77.78
50302;BME280;36550;50.472;19.744;2022-08-18T00:52:54;97798.30;;;17.86;77.76
50302;BME280;36550;50.472;19.744;2022-08-18T00:55:41;97799.58;;;17.89;77.91
50302;BME280;36550;50.472;19.744;2022-08-18T00:58:35;97804.11;;;17.88;77.79
50302;BME280;36550;50.472;19.744;2022-08-18T01:01:23;97803.08;;;17.84;77.72
50302;BME280;36550;50.472;19.744;2022-08-18T01:04:29;97792.77;;;17.80;77.75
50302;BME280;36550;50.472;19.744;2022-08-18T01:07:19;97785.11;;;17.79;77.78
50302;BME280;36550;50.472;19.744;2022-08-18T01:10:08;97786.44;;;17.79;77.83
50302;BME280;36550;50.472;19.744;2022-08-18T01:12:54;97789.38;;;17.77;77.91
50302;BME280;36550;50.472;19.744;2022-08-18T01:15:40;97785.13;;;17.76;78.02
50302;BME280;36550;50.472;19.744;2022-08-18T01:18:24;97786.95;;;17.78;78.06
50302;BME280;36550;50.472;19.744;2022-08-18T01:21:28;97785.89;;;17.79;78.05
50302;BME280;36550;50.472;19.744;2022-08-18T01:24:33;97778.20;;;17.78;78.08
50302;BME280;36550;50.472;19.744;2022-08-18T01:27:37;97779.31;;;17.74;78.06
50302;BME280;36550;50.472;19.744;2022-08-18T01:30:22;97782.53;;;17.71;78.05
50302;BME280;36550;50.472;19.744;2022-08-18T01:33:08;97786.02;;;17.69;78.08
50302;BME280;36550;50.472;19.744;2022-08-18T01:35:54;97780.97;;;17.70;78.19
50302;BME280;36550;50.472;19.744;2022-08-18T01:38:40;97782.53;;;17.71;78.24
50302;BME280;36550;50.472;19.744;2022-08-18T01:41:24;97777.23;;;17.71;78.23
50302;BME280;36550;50.472;19.744;2022-08-18T01:44:09;97780.14;;;17.72;78.08
50302;BME280;36550;50.472;19.744;2022-08-18T01:46:53;97780.14;;;17.72;78.08
50302;BME280;36550;50.472;19.744;2022-08-18T01:49:39;97771.36;;;17.74;78.64
50302;BME280;36550;50.472;19.744;2022-08-18T01:52:26;97776.16;;;17.72;78.58
50302;BME280;36550;50.472;19.744;2022-08-18T01:55:12;97773.02;;;17.70;78.62
50302;BME280;36550;50.472;19.744;2022-08-18T01:57:56;97783.08;;;17.70;78.48
50302;BME280;36550;50.472;19.744;2022-08-18T02:00:40;97782.03;;;17.69;78.53
50302;BME280;36550;50.472;19.744;2022-08-18T02:03:29;97785.23;;;17.68;78.60
50302;BME280;36550;50.472;19.744;2022-08-18T02:06:15;97784.97;;;17.67;78.70
50302;BME280;36550;50.472;19.744;2022-08-18T02:09:03;97782.91;;;17.64;78.54
50302;BME280;36550;50.472;19.744;2022-08-18T02:11:47;97786.17;;;17.59;78.52
50302;BME280;36550;50.472;19.744;2022-08-18T02:14:33;97792.58;;;17.55;78.42
50302;BME280;36550;50.472;19.744;2022-08-18T02:17:18;97785.18;;;17.52;78.62
50302;BME280;36550;50.472;19.744;2022-08-18T02:20:04;97787.05;;;17.51;78.78
50302;BME280;36550;50.472;19.744;2022-08-18T02:22:49;97782.02;;;17.50;78.76
50302;BME280;36550;50.472;19.744;2022-08-18T02:25:34;97775.44;;;17.47;78.74
50302;BME280;36550;50.472;19.744;2022-08-18T02:28:18;97774.41;;;17.43;78.50
50302;BME280;36550;50.472;19.744;2022-08-18T02:31:08;97769.14;;;17.41;78.58
50302;BME280;36550;50.472;19.744;2022-08-18T02:33:50;97764.66;;;17.39;78.58
50302;BME280;36550;50.472;19.744;2022-08-18T02:36:35;97767.09;;;17.35;78.51
50302;BME280;36550;50.472;19.744;2022-08-18T02:39:19;97766.88;;;17.31;78.71
50302;BME280;36550;50.472;19.744;2022-08-18T02:42:04;97770.08;;;17.28;78.80
50302;BME280;36550;50.472;19.744;2022-08-18T02:44:49;97771.95;;;17.28;78.82
50302;BME280;36550;50.472;19.744;2022-08-18T02:47:34;97765.87;;;17.27;78.74
50302;BME280;36550;50.472;19.744;2022-08-18T02:50:19;97770.08;;;17.28;78.76
50302;BME280;36550;50.472;19.744;2022-08-18T02:53:04;97771.69;;;17.27;78.80
50302;BME280;36550;50.472;19.744;2022-08-18T02:55:48;97769.53;;;17.29;78.84
50302;BME280;36550;50.472;19.744;2022-08-18T02:58:32;97768.20;;;17.31;78.92
50302;BME280;36550;50.472;19.744;2022-08-18T03:01:16;97760.52;;;17.30;78.91
50302;BME280;36550;50.472;19.744;2022-08-18T03:04:01;97762.13;;;17.28;78.95
50302;BME280;36550;50.472;19.744;2022-08-18T03:06:46;97761.63;;;17.26;78.99
50302;BME280;36550;50.472;19.744;2022-08-18T03:09:31;97761.39;;;17.23;78.90
50302;BME280;36550;50.472;19.744;2022-08-18T03:12:16;97759.06;;;17.19;78.81
50302;BME280;36550;50.472;19.744;2022-08-18T03:15:03;97761.22;;;17.17;78.81
50302;BME280;36550;50.472;19.744;2022-08-18T03:17:47;97765.47;;;17.15;78.67
50302;BME280;36550;50.472;19.744;2022-08-18T03:20:32;97767.35;;;17.12;78.61
50302;BME280;36550;50.472;19.744;2022-08-18T03:23:16;97775.06;;;17.11;78.72
50302;BME280;36550;50.472;19.744;2022-08-18T03:26:01;97776.39;;;17.11;78.80
50302;BME280;36550;50.472;19.744;2022-08-18T03:28:48;97780.38;;;17.08;78.79
50302;BME280;36550;50.472;19.744;2022-08-18T03:31:34;97784.95;;;17.05;78.87
50302;BME280;36550;50.472;19.744;2022-08-18T03:34:20;97792.35;;;17.06;78.98
50302;BME280;36550;50.472;19.744;2022-08-18T03:37:04;97799.26;;;17.04;78.85
50302;BME280;36550;50.472;19.744;2022-08-18T03:39:49;97795.33;;;16.99;78.58
50302;BME280;36550;50.472;19.744;2022-08-18T03:42:34;97798.80;;;16.97;78.65
50302;BME280;36550;50.472;19.744;2022-08-18T03:45:19;97796.93;;;16.98;78.49
50302;BME280;36550;50.472;19.744;2022-08-18T03:48:03;97802.73;;;17.00;78.63
50302;BME280;36550;50.472;19.744;2022-08-18T03:50:47;97805.92;;;17.02;78.79
50302;BME280;36550;50.472;19.744;2022-08-18T03:53:34;97809.59;;;17.03;78.82
50302;BME280;36550;50.472;19.744;2022-08-18T03:56:23;97803.50;;;17.05;78.83
50302;BME280;36550;50.472;19.744;2022-08-18T03:59:18;97806.08;;;17.10;79.00
50302;BME280;36550;50.472;19.744;2022-08-18T04:02:03;97809.73;;;17.17;78.99
50302;BME280;36550;50.472;19.744;2022-08-18T04:04:48;97810.50;;;17.20;78.65
50302;BME280;36550;50.472;19.744;2022-08-18T04:07:32;97813.11;;;17.23;78.55
50302;BME280;36550;50.472;19.744;2022-08-18T04:10:17;97824.40;;;17.34;78.38
50302;BME280;36550;50.472;19.744;2022-08-18T04:13:02;97822.48;;;17.39;78.22
50302;BME280;36550;50.472;19.744;2022-08-18T04:15:48;97826.77;;;17.35;77.75
50302;BME280;36550;50.472;19.744;2022-08-18T04:18:32;97830.52;;;17.31;77.90
50302;BME280;36550;50.472;19.744;2022-08-18T04:21:16;97836.52;;;17.40;78.21
50302;BME280;36550;50.472;19.744;2022-08-18T04:24:03;97836.45;;;17.47;78.21
50302;BME280;36550;50.472;19.744;2022-08-18T04:26:48;97839.52;;;17.57;78.20
50302;BME280;36550;50.472;19.744;2022-08-18T04:29:33;97837.25;;;17.69;78.25
50302;BME280;36550;50.472;19.744;2022-08-18T04:32:17;97841.84;;;17.85;78.35
50302;BME280;36550;50.472;19.744;2022-08-18T04:35:02;97840.27;;;18.03;78.34
50302;BME280;36550;50.472;19.744;2022-08-18T04:37:46;97846.91;;;18.22;78.36
50302;BME280;36550;50.472;19.744;2022-08-18T04:40:31;97841.54;;;18.44;78.46
50302;BME280;36550;50.472;19.744;2022-08-18T04:43:16;97837.75;;;18.66;78.34
50302;BME280;36550;50.472;19.744;2022-08-18T04:46:01;97837.22;;;18.83;78.21
50302;BME280;36550;50.472;19.744;2022-08-18T04:48:46;97839.46;;;19.07;78.23
50302;BME280;36550;50.472;19.744;2022-08-18T04:51:30;97840.67;;;19.28;78.19
50302;BME280;36550;50.472;19.744;2022-08-18T04:54:15;97837.80;;;19.52;78.22
50302;BME280;36550;50.472;19.744;2022-08-18T04:56:59;97842.95;;;19.76;77.96
50302;BME280;36550;50.472;19.744;2022-08-18T04:59:49;97840.22;;;19.93;77.64
50302;BME280;36550;50.472;19.744;2022-08-18T05:02:34;97840.72;;;20.06;77.37
50302;BME280;36550;50.472;19.744;2022-08-18T05:05:19;97840.28;;;20.13;77.09
50302;BME280;36550;50.472;19.744;2022-08-18T05:08:04;97837.33;;;20.14;76.65
50302;BME280;36550;50.472;19.744;2022-08-18T05:10:53;97835.11;;;20.19;76.62
50302;BME280;36550;50.472;19.744;2022-08-18T05:13:40;97840.84;;;20.24;76.48
50302;BME280;36550;50.472;19.744;2022-08-18T05:16:26;97841.22;;;20.31;76.40
50302;BME280;36550;50.472;19.744;2022-08-18T05:19:12;97836.55;;;20.36;76.28
50302;BME280;36550;50.472;19.744;2022-08-18T05:21:58;97836.70;;;20.43;76.38
50302;BME280;36550;50.472;19.744;2022-08-18T05:24:42;97843.10;;;20.53;76.47
50302;BME280;36550;50.472;19.744;2022-08-18T05:27:31;97843.24;;;20.59;76.36
50302;BME280;36550;50.472;19.744;2022-08-18T05:30:17;97842.30;;;20.66;76.32
50302;BME280;36550;50.472;19.744;2022-08-18T05:33:03;97843.91;;;20.76;76.39
50302;BME280;36550;50.472;19.744;2022-08-18T05:35:50;97845.66;;;20.92;76.57
50302;BME280;36550;50.472;19.744;2022-08-18T05:41:40;97842.98;;;21.23;76.57
50302;BME280;36550;50.472;19.744;2022-08-18T05:44:30;97843.66;;;21.38;76.39
50302;BME280;36550;50.472;19.744;2022-08-18T05:47:27;97843.39;;;21.48;76.32
50302;BME280;36550;50.472;19.744;2022-08-18T05:50:18;97840.06;;;21.62;76.33
50302;BME280;36550;50.472;19.744;2022-08-18T05:53:06;97845.34;;;21.73;76.22
50302;BME280;36550;50.472;19.744;2022-08-18T05:59:03;97851.30;;;22.17;76.48
50302;BME280;36550;50.472;19.744;2022-08-18T06:01:52;97846.75;;;22.43;76.36
50302;BME280;36550;50.472;19.744;2022-08-18T06:07:42;97840.61;;;22.84;75.99
50302;BME280;36550;50.472;19.744;2022-08-18T06:10:29;97844.91;;;23.00;75.80
50302;BME280;36550;50.472;19.744;2022-08-18T06:13:15;97844.55;;;23.19;75.71
50302;BME280;36550;50.472;19.744;2022-08-18T06:19:44;97853.97;;;23.49;75.46
50302;BME280;36550;50.472;19.744;2022-08-18T06:22:35;97852.30;;;23.65;75.20
50302;BME280;36550;50.472;19.744;2022-08-18T06:25:55;97844.44;;;23.75;74.75
50302;BME280;36550;50.472;19.744;2022-08-18T06:38:31;97846.67;;;24.30;74.37
50302;BME280;36550;50.472;19.744;2022-08-18T06:41:39;97850.64;;;24.45;74.12
50302;BME280;36550;50.472;19.744;2022-08-18T06:44:49;97858.53;;;24.56;73.66
50302;BME280;36550;50.472;19.744;2022-08-18T06:47:59;97851.09;;;24.68;73.58
50302;BME280;36550;50.472;19.744;2022-08-18T06:51:02;97846.09;;;24.85;73.10
50302;BME280;36550;50.472;19.744;2022-08-18T06:57:00;97852.19;;;25.12;71.22
50302;BME280;36550;50.472;19.744;2022-08-18T06:59:53;97854.02;;;25.27;70.59
50302;BME280;36550;50.472;19.744;2022-08-18T07:02:59;97863.77;;;25.38;70.26
50302;BME280;36550;50.472;19.744;2022-08-18T07:08:55;97862.86;;;25.70;69.85
50302;BME280;36550;50.472;19.744;2022-08-18T07:12:01;97869.67;;;25.80;67.65
50302;BME280;36550;50.472;19.744;2022-08-18T07:14:52;97872.81;;;25.88;67.73
50302;BME280;36550;50.472;19.744;2022-08-18T07:17:38;97875.28;;;25.93;67.91
50302;BME280;36550;50.472;19.744;2022-08-18T07:20:24;97872.59;;;26.00;67.61
50302;BME280;36550;50.472;19.744;2022-08-18T07:23:20;97860.60;;;26.03;66.36
50302;BME280;36550;50.472;19.744;2022-08-18T07:26:13;97871.23;;;26.12;66.85
50302;BME280;36550;50.472;19.744;2022-08-18T07:29:12;97870.06;;;26.19;66.66
50302;BME280;36550;50.472;19.744;2022-08-18T07:32:00;97864.02;;;26.28;66.71
50302;BME280;36550;50.472;19.744;2022-08-18T07:34:52;97868.02;;;26.35;66.05
50302;BME280;36550;50.472;19.744;2022-08-18T07:37:53;97866.20;;;26.39;65.82
50302;BME280;36550;50.472;19.744;2022-08-18T07:40:54;97867.08;;;26.43;65.92
50302;BME280;36550;50.472;19.744;2022-08-18T07:46:49;97868.94;;;26.61;65.35
50302;BME280;36550;50.472;19.744;2022-08-18T07:49:36;97867.92;;;26.65;64.28
50302;BME280;36550;50.472;19.744;2022-08-18T07:52:23;97861.73;;;26.71;64.19
50302;BME280;36550;50.472;19.744;2022-08-18T07:55:34;97861.82;;;26.75;64.37
50302;BME280;36550;50.472;19.744;2022-08-18T07:58:36;97855.72;;;26.78;64.02
50302;BME280;36550;50.472;19.744;2022-08-18T08:07:57;97848.52;;;27.04;63.09
50302;BME280;36550;50.472;19.744;2022-08-18T08:11:00;97846.45;;;27.07;62.50
50302;BME280;36550;50.472;19.744;2022-08-18T08:21:04;97850.47;;;27.13;61.72
50302;BME280;36550;50.472;19.744;2022-08-18T08:24:12;97856.64;;;27.14;61.09
50302;BME280;36550;50.472;19.744;2022-08-18T08:30:13;97851.77;;;27.19;60.58
50302;BME280;36550;50.472;19.744;2022-08-18T08:36:23;97850.05;;;27.27;60.56
50302;BME280;36550;50.472;19.744;2022-08-18T08:45:47;97852.08;;;27.56;58.71
50302;BME280;36550;50.472;19.744;2022-08-18T08:48:37;97855.20;;;27.58;59.15
50302;BME280;36550;50.472;19.744;2022-08-18T08:51:38;97856.70;;;27.65;59.30
50302;BME280;36550;50.472;19.744;2022-08-18T08:54:44;97857.98;;;27.71;57.92
50302;BME280;36550;50.472;19.744;2022-08-18T08:57:36;97860.22;;;27.75;58.01
50302;BME280;36550;50.472;19.744;2022-08-18T09:00:29;97865.80;;;27.67;58.17
50302;BME280;36550;50.472;19.744;2022-08-18T09:12:47;97883.67;;;27.65;57.20
50302;BME280;36550;50.472;19.744;2022-08-18T09:18:40;97883.81;;;27.88;57.68
50302;BME280;36550;50.472;19.744;2022-08-18T09:21:36;97883.34;;;28.02;57.90
50302;BME280;36550;50.472;19.744;2022-08-18T09:24:38;97890.82;;;28.09;56.63
50302;BME280;36550;50.472;19.744;2022-08-18T09:40:08;97884.11;;;28.28;55.62
50302;BME280;36550;50.472;19.744;2022-08-18T09:46:48;97883.09;;;28.36;55.50
50302;BME280;36550;50.472;19.744;2022-08-18T10:01:34;97881.31;;;28.44;54.49
50302;BME280;36550;50.472;19.744;2022-08-18T10:04:29;97881.24;;;28.40;54.70
50302;BME280;36550;50.472;19.744;2022-08-18T10:10:38;97885.02;;;28.46;54.23
50302;BME280;36550;50.472;19.744;2022-08-18T10:14:01;97880.73;;;28.45;54.46
50302;BME280;36550;50.472;19.744;2022-08-18T10:16:51;97880.70;;;28.41;54.72
50302;BME280;36550;50.472;19.744;2022-08-18T10:19:49;97871.09;;;28.44;54.83
50302;BME280;36550;50.472;19.744;2022-08-18T10:22:43;97873.52;;;28.49;54.53
50302;BME280;36550;50.472;19.744;2022-08-18T10:25:39;97874.64;;;28.48;54.31
50302;BME280;36550;50.472;19.744;2022-08-18T10:34:49;97877.92;;;28.57;54.06
50302;BME280;36550;50.472;19.744;2022-08-18T10:37:45;97872.69;;;28.54;53.74
50302;BME280;36550;50.472;19.744;2022-08-18T10:40:31;97872.11;;;28.55;53.38
50302;BME280;36550;50.472;19.744;2022-08-18T10:43:18;97872.16;;;28.49;52.94
50302;BME280;36550;50.472;19.744;2022-08-18T10:46:14;97873.03;;;28.53;53.17
50302;BME280;36550;50.472;19.744;2022-08-18T10:49:04;97871.53;;;28.55;53.01
50302;BME280;36550;50.472;19.744;2022-08-18T10:55:35;97864.59;;;28.54;52.44
50302;BME280;36550;50.472;19.744;2022-08-18T11:05:17;97846.81;;;28.53;52.50
50302;BME280;36550;50.472;19.744;2022-08-18T11:08:06;97843.89;;;28.52;52.23
50302;BME280;36550;50.472;19.744;2022-08-18T11:10:54;97841.63;;;28.54;51.88
50302;BME280;36550;50.472;19.744;2022-08-18T11:20:15;97825.27;;;28.47;50.21
50302;BME280;36550;50.472;19.744;2022-08-18T11:23:02;97825.27;;;28.47;51.43
50302;BME280;36550;50.472;19.744;2022-08-18T11:25:46;97812.77;;;28.49;51.58
50302;BME280;36550;50.472;19.744;2022-08-18T11:28:30;97811.55;;;28.46;51.21
50302;BME280;36550;50.472;19.744;2022-08-18T11:31:14;97820.38;;;28.43;51.45
50302;BME280;36550;50.472;19.744;2022-08-18T11:33:59;97815.34;;;28.41;51.54
50302;BME280;36550;50.472;19.744;2022-08-18T11:36:43;97824.43;;;28.43;51.29
50302;BME280;36550;50.472;19.744;2022-08-18T11:39:32;97812.41;;;28.40;51.02
50302;BME280;36550;50.472;19.744;2022-08-18T11:42:17;97812.22;;;28.39;50.51
50302;BME280;36550;50.472;19.744;2022-08-18T11:45:18;97817.39;;;28.38;50.51
50302;BME280;36550;50.472;19.744;2022-08-18T11:48:16;97805.12;;;28.41;50.89
50302;BME280;36550;50.472;19.744;2022-08-18T11:54:18;97803.03;;;28.44;50.38
50302;BME280;36550;50.472;19.744;2022-08-18T11:57:30;97797.44;;;28.43;50.25
50302;BME280;36550;50.472;19.744;2022-08-18T12:03:42;97789.34;;;28.43;50.14
50302;BME280;36550;50.472;19.744;2022-08-18T12:06:29;97790.95;;;28.48;50.45
50302;BME280;36550;50.472;19.744;2022-08-18T12:09:26;97789.02;;;28.48;49.78
50302;BME280;36550;50.472;19.744;2022-08-18T12:12:30;97785.71;;;28.55;50.24
50302;BME280;36550;50.472;19.744;2022-08-18T12:18:05;97782.43;;;28.65;50.03
50302;BME280;36550;50.472;19.744;2022-08-18T12:20:49;97774.74;;;28.67;50.01
50302;BME280;36550;50.472;19.744;2022-08-18T12:23:36;97775.73;;;28.69;49.46
50302;BME280;36550;50.472;19.744;2022-08-18T12:26:22;97771.27;;;28.67;49.39
50302;BME280;36550;50.472;19.744;2022-08-18T12:29:07;97767.64;;;28.69;50.01
50302;BME280;36550;50.472;19.744;2022-08-18T12:31:53;97751.85;;;28.71;50.17
50302;BME280;36550;50.472;19.744;2022-08-18T12:34:38;97745.16;;;28.74;50.13
50302;BME280;36550;50.472;19.744;2022-08-18T12:37:24;97741.52;;;28.76;50.25
50302;BME280;36550;50.472;19.744;2022-08-18T12:40:09;97741.58;;;28.80;50.39
50302;BME280;36550;50.472;19.744;2022-08-18T12:42:54;97742.41;;;28.84;50.12
50302;BME280;36550;50.472;19.744;2022-08-18T12:45:39;97732.77;;;28.83;49.82
50302;BME280;36550;50.472;19.744;2022-08-18T12:48:25;97735.96;;;28.79;50.01
50302;BME280;36550;50.472;19.744;2022-08-18T12:51:10;97730.36;;;28.78;50.13
50302;BME280;36550;50.472;19.744;2022-08-18T12:53:56;97743.13;;;28.81;49.76
50302;BME280;36550;50.472;19.744;2022-08-18T12:56:41;97737.31;;;28.79;49.48
50302;BME280;36550;50.472;19.744;2022-08-18T12:59:25;97744.13;;;28.83;49.89
50302;BME280;36550;50.472;19.744;2022-08-18T13:02:09;97749.58;;;28.86;50.12
50302;BME280;36550;50.472;19.744;2022-08-18T13:04:54;97748.17;;;28.83;49.41
50302;BME280;36550;50.472;19.744;2022-08-18T13:07:38;97752.03;;;28.82;49.13
50302;BME280;36550;50.472;19.744;2022-08-18T13:10:23;97736.89;;;28.77;49.22
50302;BME280;36550;50.472;19.744;2022-08-18T13:13:07;97736.89;;;28.77;49.22
50302;BME280;36550;50.472;19.744;2022-08-18T13:15:51;97739.95;;;28.75;49.21
50302;BME280;36550;50.472;19.744;2022-08-18T13:18:38;97736.26;;;28.74;48.93
50302;BME280;36550;50.472;19.744;2022-08-18T13:21:26;97740.53;;;28.75;49.15
50302;BME280;36550;50.472;19.744;2022-08-18T13:24:11;97747.28;;;28.75;48.97
50302;BME280;36550;50.472;19.744;2022-08-18T13:26:56;97746.64;;;28.72;48.59
50302;BME280;36550;50.472;19.744;2022-08-18T13:29:40;97751.21;;;28.68;48.12
50302;BME280;36550;50.472;19.744;2022-08-18T13:32:24;97746.75;;;28.66;48.23
50302;BME280;36550;50.472;19.744;2022-08-18T13:35:09;97732.61;;;28.63;48.03
50302;BME280;36550;50.472;19.744;2022-08-18T13:37:54;97742.28;;;28.64;48.75
50302;BME280;36550;50.472;19.744;2022-08-18T13:40:39;97743.98;;;28.62;48.65
50302;BME280;36550;50.472;19.744;2022-08-18T13:43:30;97756.30;;;28.59;48.26
50302;BME280;36550;50.472;19.744;2022-08-18T13:46:17;97755.14;;;28.60;48.33
50302;BME280;36550;50.472;19.744;2022-08-18T13:49:02;97760.70;;;28.58;48.20
50302;BME280;36550;50.472;19.744;2022-08-18T13:51:47;97757.23;;;28.57;48.26
50302;BME280;36550;50.472;19.744;2022-08-18T13:54:33;97757.23;;;28.57;47.71
50302;BME280;36550;50.472;19.744;2022-08-18T13:57:18;97763.17;;;28.57;47.81
50302;BME280;36550;50.472;19.744;2022-08-18T14:00:05;97768.16;;;28.55;47.82
50302;BME280;36550;50.472;19.744;2022-08-18T14:02:51;97769.87;;;28.53;46.88
50302;BME280;36550;50.472;19.744;2022-08-18T14:05:36;97776.39;;;28.52;46.90
50302;BME280;36550;50.472;19.744;2022-08-18T14:08:21;97779.80;;;28.49;47.24
50302;BME280;36550;50.472;19.744;2022-08-18T14:11:05;97783.43;;;28.47;46.88
50302;BME280;36550;50.472;19.744;2022-08-18T14:13:50;97782.44;;;28.46;46.90
50302;BME280;36550;50.472;19.744;2022-08-18T14:16:34;97783.78;;;28.46;47.57
50302;BME280;36550;50.472;19.744;2022-08-18T14:19:18;97778.73;;;28.44;47.18
50302;BME280;36550;50.472;19.744;2022-08-18T14:22:21;97786.22;;;28.41;46.90
50302;BME280;36550;50.472;19.744;2022-08-18T14:25:24;97773.43;;;28.38;47.29
50302;BME280;36550;50.472;19.744;2022-08-18T14:28:29;97783.23;;;28.36;47.29
50302;BME280;36550;50.472;19.744;2022-08-18T14:31:13;97782.81;;;28.34;47.17
50302;BME280;36550;50.472;19.744;2022-08-18T14:33:58;97777.41;;;28.34;47.09
50302;BME280;36550;50.472;19.744;2022-08-18T14:36:42;97780.88;;;28.35;47.60
50302;BME280;36550;50.472;19.744;2022-08-18T14:39:26;97778.61;;;28.37;47.68
50302;BME280;36550;50.472;19.744;2022-08-18T14:42:14;97773.20;;;28.37;47.78
50302;BME280;36550;50.472;19.744;2022-08-18T14:45:01;97774.78;;;28.38;48.04
50302;BME280;36550;50.472;19.744;2022-08-18T14:47:45;97772.21;;;28.35;47.97
50302;BME280;36550;50.472;19.744;2022-08-18T14:50:30;97772.53;;;28.30;47.61
50302;BME280;36550;50.472;19.744;2022-08-18T14:53:16;97767.48;;;28.29;47.80
50302;BME280;36550;50.472;19.744;2022-08-18T14:56:03;97759.52;;;28.26;47.72
50302;BME280;36550;50.472;19.744;2022-08-18T14:58:48;97746.95;;;28.24;47.87
50302;BME280;36550;50.472;19.744;2022-08-18T15:01:33;97744.19;;;28.20;48.07
50302;BME280;36550;50.472;19.744;2022-08-18T15:04:19;97746.63;;;28.16;47.16
50302;BME280;36550;50.472;19.744;2022-08-18T15:07:03;97748.91;;;28.14;47.81
50302;BME280;36550;50.472;19.744;2022-08-18T15:09:48;97747.48;;;28.10;48.01
50302;BME280;36550;50.472;19.744;2022-08-18T15:12:33;97752.01;;;28.06;48.17
50302;BME280;36550;50.472;19.744;2022-08-18T15:15:17;97749.47;;;28.03;48.45
50302;BME280;36550;50.472;19.744;2022-08-18T15:18:01;97745.77;;;28.02;48.69
50302;BME280;36550;50.472;19.744;2022-08-18T15:20:46;97745.50;;;27.97;48.62
50302;BME280;36550;50.472;19.744;2022-08-18T15:23:32;97745.98;;;27.93;48.48
50302;BME280;36550;50.472;19.744;2022-08-18T15:26:34;97746.14;;;27.91;48.48
50302;BME280;36550;50.472;19.744;2022-08-18T15:29:20;97748.95;;;27.88;48.44
50302;BME280;36550;50.472;19.744;2022-08-18T15:32:04;97747.73;;;27.85;48.62
50302;BME280;36550;50.472;19.744;2022-08-18T15:34:49;97742.27;;;27.82;48.24
50302;BME280;36550;50.472;19.744;2022-08-18T15:37:36;97745.47;;;27.78;48.41
50302;BME280;36550;50.472;19.744;2022-08-18T15:40:23;97742.50;;;27.73;48.50
50302;BME280;36550;50.472;19.744;2022-08-18T15:43:09;97742.50;;;27.73;48.50
50302;BME280;36550;50.472;19.744;2022-08-18T15:45:53;97739.73;;;27.70;48.48
50302;BME280;36550;50.472;19.744;2022-08-18T15:48:37;97740.78;;;27.65;48.40
50302;BME280;36550;50.472;19.744;2022-08-18T15:51:22;97739.51;;;27.59;48.36
50302;BME280;36550;50.472;19.744;2022-08-18T15:54:06;97748.44;;;27.53;48.57
50302;BME280;36550;50.472;19.744;2022-08-18T15:56:51;97749.28;;;27.48;48.70
50302;BME280;36550;50.472;19.744;2022-08-18T15:59:35;97746.14;;;27.45;48.90
50302;BME280;36550;50.472;19.744;2022-08-18T16:02:19;97740.24;;;27.40;49.08
50302;BME280;36550;50.472;19.744;2022-08-18T16:05:05;97744.01;;;27.35;49.24
50302;BME280;36550;50.472;19.744;2022-08-18T16:07:51;97738.89;;;27.30;49.45
50302;BME280;36550;50.472;19.744;2022-08-18T16:10:37;97736.69;;;27.26;49.56
50302;BME280;36550;50.472;19.744;2022-08-18T16:13:23;97740.62;;;27.22;49.69
50302;BME280;36550;50.472;19.744;2022-08-18T16:16:18;97733.58;;;27.18;49.87
50302;BME280;36550;50.472;19.744;2022-08-18T16:19:00;97735.41;;;27.14;50.17
50302;BME280;36550;50.472;19.744;2022-08-18T16:21:44;97731.09;;;27.09;50.23
50302;BME280;36550;50.472;19.744;2022-08-18T16:24:28;97728.09;;;27.04;50.17
50302;BME280;36550;50.472;19.744;2022-08-18T16:27:12;97715.66;;;27.00;50.22
50302;BME280;36550;50.472;19.744;2022-08-18T16:29:57;97716.49;;;26.94;50.43
50302;BME280;36550;50.472;19.744;2022-08-18T16:32:41;97712.74;;;26.89;50.64
50302;BME280;36550;50.472;19.744;2022-08-18T16:35:25;97721.42;;;26.82;50.92
50302;BME280;36550;50.472;19.744;2022-08-18T16:38:10;97714.52;;;26.75;51.15
50302;BME280;36550;50.472;19.744;2022-08-18T16:40:54;97716.47;;;26.68;51.37
50302;BME280;36550;50.472;19.744;2022-08-18T16:43:38;97725.51;;;26.60;51.56
50302;BME280;36550;50.472;19.744;2022-08-18T16:46:24;97726.42;;;26.52;51.66
50302;BME280;36550;50.472;19.744;2022-08-18T16:49:10;97723.78;;;26.46;51.81
50302;BME280;36550;50.472;19.744;2022-08-18T16:51:54;97728.77;;;26.38;51.99
50302;BME280;36550;50.472;19.744;2022-08-18T16:54:39;97726.67;;;26.31;52.20